createdAt,value
2018-04-25T00:01:45.933Z,3.00
2018-04-25T00:04:12.914Z,2.80
2018-04-25T00:06:39.178Z,3.23
2018-04-25T00:09:06.214Z,3.13
2018-04-25T00:11:32.389Z,3.17
2018-04-25T00:13:58.607Z,2.80
2018-04-25T00:16:25.533Z,3.03
2018-04-25T00:18:51.721Z,3.10
2018-04-25T00:21:17.913Z,3.60
2018-04-25T00:23:44.846Z,2.70
2018-04-25T00:26:11.310Z,2.70
2018-04-25T00:28:37.489Z,2.70
2018-04-25T00:31:03.686Z,2.90
2018-04-25T00:33:29.880Z,2.83
2018-04-25T00:35:56.058Z,2.77
2018-04-25T00:38:22.277Z,2.80
2018-04-25T00:40:49.118Z,2.87
2018-04-25T00:43:16.042Z,3.47
2018-04-25T00:45:42.314Z,3.13
2018-04-25T00:48:08.490Z,3.07
2018-04-25T00:50:34.752Z,2.97
2018-04-25T00:53:01.710Z,2.53
2018-04-25T00:55:28.649Z,2.73
2018-04-25T00:57:54.854Z,3.40
2018-04-25T01:00:21.045Z,2.73
2018-04-25T01:02:47.297Z,3.10
2018-04-25T01:05:13.470Z,2.53
2018-04-25T01:07:39.656Z,2.97
2018-04-25T01:10:05.871Z,2.87
2018-04-25T01:12:32.805Z,2.73
2018-04-25T01:14:59.797Z,3.00
2018-04-25T01:17:25.981Z,2.53
2018-04-25T01:19:52.240Z,2.70
2018-04-25T01:22:18.523Z,2.97
2018-04-25T01:24:46.355Z,2.93
2018-04-25T01:27:15.475Z,2.73
2018-04-25T01:29:41.668Z,2.67
2018-04-25T01:32:08.596Z,2.40
2018-04-25T01:34:35.625Z,3.40
2018-04-25T01:37:01.839Z,3.30
2018-04-25T01:39:34.957Z,2.73
2018-04-25T01:42:01.187Z,2.83
2018-04-25T01:44:30.252Z,2.43
2018-04-25T01:46:57.446Z,2.97
2018-04-25T01:49:29.533Z,2.50
2018-04-25T01:52:08.062Z,3.13
2018-04-25T01:54:47.522Z,2.53
2018-04-25T01:57:26.133Z,2.83
2018-04-25T02:00:04.849Z,2.77
2018-04-25T02:02:30.853Z,2.63
2018-04-25T02:04:57.027Z,2.73
2018-04-25T02:07:23.253Z,2.80
2018-04-25T02:09:49.426Z,2.80
2018-04-25T02:12:15.593Z,2.83
2018-04-25T02:14:42.544Z,3.00
2018-04-25T02:17:09.500Z,3.17
2018-04-25T02:19:35.695Z,3.10
2018-04-25T02:22:01.890Z,2.87
2018-04-25T02:24:28.063Z,3.53
2018-04-25T02:26:54.236Z,3.03
2018-04-25T02:29:20.423Z,2.97
2018-04-25T02:31:46.607Z,3.27
2018-04-25T02:34:12.825Z,2.57
2018-04-25T02:36:39.067Z,2.90
2018-04-25T02:39:05.249Z,2.97
2018-04-25T02:41:31.427Z,3.07
2018-04-25T02:43:58.332Z,3.67
2018-04-25T02:46:24.528Z,3.23
2018-04-25T02:48:50.722Z,3.37
2018-04-25T02:51:16.907Z,2.97
2018-04-25T02:53:43.735Z,3.40
2018-04-25T02:56:10.157Z,3.87
2018-04-25T02:58:36.449Z,3.10
2018-04-25T03:01:02.743Z,3.47
2018-04-25T03:03:28.954Z,3.40
2018-04-25T03:05:55.932Z,3.47
2018-04-25T03:08:22.110Z,3.60
2018-04-25T03:10:49.299Z,3.10
2018-04-25T03:13:16.237Z,3.37
2018-04-25T03:15:43.172Z,3.63
2018-04-25T03:18:09.386Z,3.93
2018-04-25T03:20:35.587Z,3.87
2018-04-25T03:23:01.786Z,3.90
2018-04-25T03:25:28.714Z,3.17
2018-04-25T03:27:54.891Z,3.10
2018-04-25T03:30:21.076Z,3.77
2018-04-25T03:32:47.254Z,3.23
2018-04-25T03:35:13.457Z,3.27
2018-04-25T03:37:39.661Z,2.77
2018-04-25T03:40:05.846Z,3.17
2018-04-25T03:42:32.805Z,3.50
2018-04-25T03:44:58.981Z,3.53
2018-04-25T03:47:25.239Z,3.50
2018-04-25T03:49:51.417Z,3.40
2018-04-25T03:52:17.631Z,3.30
2018-04-25T03:54:44.612Z,3.33
2018-04-25T03:57:10.785Z,3.40
2018-04-25T03:59:36.990Z,4.03
2018-04-25T04:02:03.179Z,3.27
2018-04-25T04:04:30.101Z,3.60
2018-04-25T04:06:56.331Z,3.53
2018-04-25T04:09:22.512Z,4.07
2018-04-25T04:11:48.750Z,4.23
2018-04-25T04:14:14.949Z,3.83
2018-04-25T04:16:41.907Z,3.90
2018-04-25T04:19:08.877Z,3.80
2018-04-25T04:21:35.098Z,4.73
2018-04-25T04:24:01.344Z,3.40
2018-04-25T04:26:27.573Z,4.40
2018-04-25T04:28:53.802Z,4.33
2018-04-25T04:31:20.036Z,4.27
2018-04-25T04:33:46.250Z,3.57
2018-04-25T04:36:13.196Z,3.93
2018-04-25T04:38:40.174Z,3.60
2018-04-25T04:41:06.405Z,3.60
2018-04-25T04:43:33.356Z,4.17
2018-04-25T04:45:59.580Z,3.80
2018-04-25T04:48:25.847Z,4.23
2018-04-25T04:53:22.343Z,4.53
2018-04-25T04:55:50.367Z,3.50
2018-04-25T04:58:16.597Z,4.97
2018-04-25T05:00:42.894Z,4.63
2018-04-25T05:03:09.908Z,3.90
2018-04-25T05:05:36.114Z,3.83
2018-04-25T05:08:02.502Z,3.87
2018-04-25T05:10:28.807Z,4.10
2018-04-25T05:12:55.194Z,3.80
2018-04-25T05:15:21.798Z,3.67
2018-04-25T05:17:48.987Z,3.40
2018-04-25T05:20:15.381Z,4.43
2018-04-25T05:22:41.626Z,4.23
2018-04-25T05:25:07.867Z,3.60
2018-04-25T05:27:34.058Z,4.40
2018-04-25T05:30:00.302Z,4.10
2018-04-25T05:32:26.566Z,3.53
2018-04-25T05:34:52.800Z,3.80
2018-04-25T05:37:19.062Z,3.63
2018-04-25T05:39:45.269Z,4.30
2018-04-25T05:42:11.486Z,4.13
2018-04-25T05:44:37.766Z,3.57
2018-04-25T05:47:04.766Z,3.40
2018-04-25T05:49:31.044Z,3.93
2018-04-25T05:51:58.036Z,3.40
2018-04-25T05:54:24.421Z,4.47
2018-04-25T05:56:50.941Z,3.60
2018-04-25T05:59:18.085Z,3.30
2018-04-25T06:01:44.332Z,4.80
2018-04-25T06:04:10.571Z,4.17
2018-04-25T06:06:36.793Z,3.60
2018-04-25T06:09:03.014Z,3.73
2018-04-25T06:11:29.229Z,4.23
2018-04-25T06:13:56.218Z,4.33
2018-04-25T06:16:22.404Z,4.27
2018-04-25T06:18:49.376Z,4.37
2018-04-25T06:21:15.563Z,4.23
2018-04-25T06:23:41.742Z,4.17
2018-04-25T06:26:07.917Z,4.30
2018-04-25T06:28:34.102Z,3.80
2018-04-25T06:31:00.302Z,3.80
2018-04-25T06:33:26.486Z,4.20
2018-04-25T06:35:52.658Z,4.30
2018-04-25T06:38:18.859Z,4.67
2018-04-25T06:40:45.030Z,4.20
2018-04-25T06:43:11.242Z,4.03
2018-04-25T06:45:37.419Z,3.83
2018-04-25T06:48:04.346Z,3.70
2018-04-25T06:50:30.530Z,4.13
2018-04-25T06:52:56.711Z,3.70
2018-04-25T06:55:22.918Z,3.70
2018-04-25T06:57:49.092Z,4.20
2018-04-25T07:00:16.016Z,4.00
2018-04-25T07:02:42.197Z,3.73
2018-04-25T07:05:08.366Z,3.80
2018-04-25T07:07:34.562Z,3.87
2018-04-25T07:10:00.747Z,4.13
2018-04-25T07:12:26.912Z,3.20
2018-04-25T07:14:53.837Z,3.47
2018-04-25T07:17:20.756Z,3.23
2018-04-25T07:22:19.701Z,3.77
2018-04-25T07:24:45.885Z,3.23
2018-04-25T07:27:12.077Z,3.60
2018-04-25T07:29:38.268Z,3.17
2018-04-25T07:32:04.508Z,2.93
2018-04-25T07:34:30.686Z,2.97
2018-04-25T07:36:57.607Z,2.67
2018-04-25T07:39:23.803Z,3.30
2018-04-25T07:41:50.007Z,2.50
2018-04-25T07:44:16.939Z,2.77
2018-04-25T07:46:43.109Z,2.60
2018-04-25T07:49:09.295Z,2.43
2018-04-25T07:51:35.490Z,3.37
2018-04-25T07:54:01.674Z,2.43
2018-04-25T07:56:28.621Z,2.80
2018-04-25T07:58:54.817Z,2.77
2018-04-25T08:01:21.001Z,3.20
2018-04-25T08:03:47.926Z,2.83
2018-04-25T08:06:14.110Z,3.03
2018-04-25T08:08:40.517Z,2.87
2018-04-25T08:11:07.426Z,2.70
2018-04-25T08:13:45.805Z,2.77
2018-04-25T08:16:24.396Z,2.13
2018-04-25T08:19:02.711Z,1.70
2018-04-25T08:21:39.964Z,2.57
2018-04-25T08:24:06.904Z,2.37
2018-04-25T08:26:33.082Z,2.60
2018-04-25T08:29:00.001Z,2.53
2018-04-25T08:31:26.236Z,1.70
2018-04-25T08:33:52.415Z,2.13
2018-04-25T08:36:18.593Z,1.80
2018-04-25T08:38:44.805Z,1.50
2018-04-25T08:41:10.989Z,1.40
2018-04-25T08:43:37.922Z,1.40
2018-04-25T08:46:04.859Z,1.57
2018-04-25T08:48:31.021Z,1.40
2018-04-25T08:50:57.961Z,1.70
2018-04-25T08:53:24.876Z,1.70
2018-04-25T08:55:51.142Z,1.50
2018-04-25T08:58:18.145Z,1.77
2018-04-25T09:00:44.304Z,1.80
2018-04-25T09:03:10.499Z,1.53
2018-04-25T09:05:36.664Z,2.00
2018-04-25T09:08:02.862Z,2.10
2018-04-25T09:10:29.060Z,1.70
2018-04-25T09:12:55.979Z,1.70
2018-04-25T09:15:22.234Z,1.57
2018-04-25T09:17:48.418Z,1.10
2018-04-25T09:20:14.608Z,1.20
2018-04-25T09:22:41.550Z,1.50
2018-04-25T09:25:08.466Z,1.30
2018-04-25T09:27:34.683Z,1.33
2018-04-25T09:30:00.864Z,1.30
2018-04-25T09:32:27.050Z,1.40
2018-04-25T09:34:53.245Z,1.17
2018-04-25T09:37:20.176Z,0.80
2018-04-25T09:39:46.482Z,1.00
2018-04-25T09:42:12.668Z,0.90
2018-04-25T09:44:39.581Z,0.70
2018-04-25T09:47:05.769Z,1.10
2018-04-25T09:49:31.953Z,0.97
2018-04-25T09:51:58.162Z,1.27
2018-04-25T09:54:24.350Z,1.10
2018-04-25T09:56:51.526Z,1.10
2018-04-25T09:59:17.834Z,1.20
2018-04-25T10:01:44.777Z,1.10
2018-04-25T10:04:11.717Z,1.00
2018-04-25T10:06:37.899Z,0.97
2018-04-25T10:09:04.101Z,0.90
2018-04-25T10:11:31.047Z,1.30
2018-04-25T10:13:57.982Z,1.10
2018-04-25T10:16:24.941Z,1.37
2018-04-25T10:18:51.112Z,1.00
2018-04-25T10:21:17.293Z,1.40
2018-04-25T10:23:43.536Z,1.20
2018-04-25T10:26:09.723Z,1.53
2018-04-25T10:28:35.955Z,1.53
2018-04-25T10:31:02.147Z,2.10
2018-04-25T10:33:29.069Z,1.47
2018-04-25T10:35:55.250Z,1.53
2018-04-25T10:38:21.446Z,1.60
2018-04-25T10:40:47.642Z,1.67
2018-04-25T10:43:13.830Z,1.40
2018-04-25T10:45:40.757Z,1.33
2018-04-25T10:48:06.957Z,1.40
2018-04-25T10:50:33.142Z,1.57
2018-04-25T10:53:00.111Z,1.73
2018-04-25T10:55:26.385Z,1.60
2018-04-25T10:57:52.565Z,1.57
2018-04-25T11:00:20.282Z,1.50
2018-04-25T11:02:46.471Z,1.23
2018-04-25T11:05:12.674Z,1.10
2018-04-25T11:07:38.863Z,1.90
2018-04-25T11:10:05.038Z,1.20
2018-04-25T11:12:31.244Z,1.10
2018-04-25T11:14:57.429Z,1.20
2018-04-25T11:17:24.361Z,1.20
2018-04-25T11:19:50.558Z,0.90
2018-04-25T11:22:16.783Z,1.00
2018-04-25T11:24:42.961Z,1.20
2018-04-25T11:27:09.222Z,1.50
2018-04-25T11:29:35.372Z,1.30
2018-04-25T11:32:01.576Z,1.20
2018-04-25T11:34:28.504Z,1.30
2018-04-25T11:36:56.175Z,1.20
2018-04-25T11:39:22.400Z,1.80
2018-04-25T11:41:48.582Z,1.63
2018-04-25T11:44:14.784Z,1.80
2018-04-25T11:46:41.718Z,1.50
2018-04-25T11:49:08.657Z,1.50
2018-04-25T11:51:34.895Z,2.07
2018-04-25T11:54:01.105Z,1.70
2018-04-25T11:56:27.270Z,1.40
2018-04-25T11:58:53.474Z,1.10
2018-04-25T12:01:19.657Z,1.87
2018-04-25T12:03:46.605Z,1.97
2018-04-25T12:06:13.538Z,1.80
2018-04-25T12:08:39.736Z,1.70
2018-04-25T12:11:05.929Z,2.30
2018-04-25T12:13:32.866Z,1.77
2018-04-25T12:15:59.850Z,1.87
2018-04-25T12:18:26.026Z,1.90
2018-04-25T12:20:52.218Z,1.50
2018-04-25T12:23:18.402Z,1.70
2018-04-25T12:25:44.580Z,1.27
2018-04-25T12:28:11.527Z,1.50
2018-04-25T12:30:37.722Z,1.50
2018-04-25T12:33:03.903Z,1.73
2018-04-25T12:35:30.843Z,1.30
2018-04-25T12:37:57.062Z,1.03
2018-04-25T12:40:23.993Z,1.20
2018-04-25T12:42:50.169Z,1.57
2018-04-25T12:45:16.373Z,1.70
2018-04-25T12:47:43.303Z,1.87
2018-04-25T12:50:09.485Z,1.87
2018-04-25T12:52:35.672Z,1.90
2018-04-25T12:55:02.330Z,2.50
2018-04-25T12:57:28.566Z,2.27
2018-04-25T12:59:55.565Z,2.60
2018-04-25T13:02:22.590Z,2.50
2018-04-25T13:04:48.797Z,2.30
2018-04-25T13:07:15.700Z,2.40
2018-04-25T13:09:41.910Z,1.97
2018-04-25T13:12:08.090Z,2.57
2018-04-25T13:14:34.266Z,2.27
2018-04-25T13:17:00.454Z,2.13
2018-04-25T13:19:26.636Z,2.27
2018-04-25T13:21:52.882Z,1.90
2018-04-25T13:24:19.080Z,1.90
2018-04-25T13:26:46.021Z,1.40
2018-04-25T13:29:12.977Z,1.80
2018-04-25T13:31:39.900Z,1.70
2018-04-25T13:34:06.102Z,2.10
2018-04-25T13:36:32.286Z,1.50
2018-04-25T13:38:59.205Z,1.80
2018-04-25T13:41:25.393Z,1.70
2018-04-25T13:43:51.586Z,1.67
2018-04-25T13:46:17.817Z,1.70
2018-04-25T13:48:44.014Z,1.53
2018-04-25T13:51:10.189Z,1.67
2018-04-25T13:53:36.441Z,2.03
2018-04-25T13:56:03.377Z,1.50
2018-04-25T13:58:29.598Z,1.60
2018-04-25T14:00:55.894Z,1.60
2018-04-25T14:03:22.296Z,1.27
2018-04-25T14:05:49.238Z,1.53
2018-04-25T14:08:15.429Z,1.47
2018-04-25T14:10:41.629Z,1.50
2018-04-25T14:13:07.980Z,1.77
2018-04-25T14:15:34.119Z,1.80
2018-04-25T14:18:00.304Z,1.40
2018-04-25T14:20:26.482Z,2.10
2018-04-25T14:22:52.705Z,2.00
2018-04-25T14:25:18.917Z,1.60
2018-04-25T14:27:45.825Z,2.37
2018-04-25T14:30:12.126Z,2.30
2018-04-25T14:32:38.262Z,2.00
2018-04-25T14:35:04.488Z,2.70
2018-04-25T14:37:30.674Z,2.43
2018-04-25T14:39:56.854Z,2.27
2018-04-25T14:42:23.041Z,2.40
2018-04-25T14:44:49.217Z,2.50
2018-04-25T14:47:15.405Z,2.27
2018-04-25T14:49:41.585Z,2.17
2018-04-25T14:52:07.756Z,2.30
2018-04-25T14:54:33.982Z,2.20
2018-04-25T14:57:00.131Z,2.93
2018-04-25T14:59:26.355Z,1.93
2018-04-25T15:01:52.549Z,2.80
2018-04-25T15:04:18.875Z,2.23
2018-04-25T15:06:45.088Z,2.73
2018-04-25T15:09:12.027Z,2.53
2018-04-25T15:11:38.230Z,1.87
2018-04-25T15:14:04.431Z,3.20
2018-04-25T15:16:30.606Z,3.23
2018-04-25T15:18:56.794Z,2.57
2018-04-25T15:21:22.993Z,3.03
2018-04-25T15:23:49.246Z,2.57
2018-04-25T15:26:16.177Z,2.10
2018-04-25T15:28:42.374Z,2.93
2018-04-25T15:31:08.564Z,2.70
2018-04-25T15:33:35.531Z,2.30
2018-04-25T15:36:01.757Z,2.17
2018-04-25T15:38:27.941Z,1.90
2018-04-25T15:40:54.134Z,2.10
2018-04-25T15:43:20.337Z,2.20
2018-04-25T15:45:47.265Z,1.97
2018-04-25T15:48:13.474Z,2.20
2018-04-25T15:50:39.678Z,1.83
2018-04-25T15:53:05.866Z,2.60
2018-04-25T15:55:33.546Z,3.17
2018-04-25T15:58:00.533Z,2.60
2018-04-25T16:00:26.720Z,2.80
2018-04-25T16:02:53.181Z,2.50
2018-04-25T16:05:20.128Z,2.43
2018-04-25T16:07:47.082Z,2.30
2018-04-25T16:10:14.029Z,1.60
2018-04-25T16:12:40.938Z,1.87
2018-04-25T16:15:07.171Z,2.27
2018-04-25T16:17:33.341Z,2.03
2018-04-25T16:20:00.271Z,2.00
2018-04-25T16:22:26.477Z,2.23
2018-04-25T16:24:52.665Z,1.90
2018-04-25T16:27:18.926Z,1.90
2018-04-25T16:29:45.137Z,2.07
2018-04-25T16:32:11.348Z,2.00
2018-04-25T16:34:37.598Z,1.63
2018-04-25T16:37:04.585Z,2.07
2018-04-25T16:39:30.832Z,2.00
2018-04-25T16:41:57.031Z,1.80
2018-04-25T16:44:23.234Z,2.03
2018-04-25T16:46:49.424Z,2.07
2018-04-25T16:49:15.601Z,1.90
2018-04-25T16:51:42.555Z,1.70
2018-04-25T16:54:09.473Z,1.50
2018-04-25T16:56:35.690Z,1.97
2018-04-25T16:59:01.878Z,2.10
2018-04-25T17:01:29.074Z,1.70
2018-04-25T17:03:55.634Z,1.70
2018-04-25T17:06:21.858Z,1.80
2018-04-25T17:08:48.041Z,1.70
2018-04-25T17:11:14.965Z,1.63
2018-04-25T17:13:41.146Z,1.93
2018-04-25T17:16:07.361Z,1.80
2018-04-25T17:18:34.312Z,1.60
2018-04-25T17:21:00.565Z,1.70
2018-04-25T17:23:26.746Z,1.67
2018-04-25T17:25:52.939Z,1.63
2018-04-25T17:28:19.184Z,1.57
2018-04-25T17:30:45.357Z,1.10
2018-04-25T17:33:12.292Z,1.97
2018-04-25T17:35:38.485Z,1.63
2018-04-25T17:38:04.674Z,1.63
2018-04-25T17:40:30.863Z,1.80
2018-04-25T17:42:57.251Z,1.40
2018-04-25T17:45:23.510Z,1.27
2018-04-25T17:47:49.804Z,1.47
2018-04-25T17:50:16.074Z,1.80
2018-04-25T17:52:42.274Z,1.80
2018-04-25T17:55:08.464Z,1.50
2018-04-25T17:57:34.751Z,1.60
2018-04-25T18:00:00.890Z,1.63
2018-04-25T18:02:27.818Z,1.70
2018-04-25T18:04:54.029Z,1.80
2018-04-25T18:07:20.209Z,1.40
2018-04-25T18:09:47.172Z,1.57
2018-04-25T18:12:13.340Z,1.53
2018-04-25T18:14:39.513Z,1.63
2018-04-25T18:17:05.725Z,1.70
2018-04-25T18:19:31.918Z,1.90
2018-04-25T18:21:58.098Z,1.73
2018-04-25T18:24:24.294Z,1.77
2018-04-25T18:26:50.497Z,1.70
2018-04-25T18:29:17.421Z,2.03
2018-04-25T18:31:43.606Z,1.90
2018-04-25T18:34:09.826Z,1.70
2018-04-25T18:36:36.012Z,1.70
2018-04-25T18:39:02.218Z,1.83
2018-04-25T18:41:28.415Z,1.80
2018-04-25T18:43:54.691Z,1.80
2018-04-25T18:46:20.821Z,1.70
2018-04-25T18:48:46.988Z,1.80
2018-04-25T18:51:13.181Z,1.90
2018-04-25T18:53:39.358Z,1.87
2018-04-25T18:56:05.553Z,2.30
2018-04-25T18:58:31.730Z,2.20
2018-04-25T19:00:58.654Z,2.30
2018-04-25T19:03:25.207Z,2.50
2018-04-25T19:05:51.414Z,2.67
2018-04-25T19:08:17.601Z,2.90
2018-04-25T19:10:44.532Z,3.50
2018-04-25T19:13:11.478Z,2.80
2018-04-25T19:15:37.649Z,2.80
2018-04-25T19:18:03.817Z,2.73
2018-04-25T19:20:30.027Z,2.60
2018-04-25T19:22:56.199Z,3.10
2018-04-25T19:25:23.133Z,3.27
2018-04-25T19:27:49.310Z,3.50
2018-04-25T19:30:15.499Z,3.27
2018-04-25T19:32:41.678Z,3.00
2018-04-25T19:35:08.115Z,3.50
2018-04-25T19:37:34.298Z,3.87
2018-04-25T19:40:00.482Z,3.50
2018-04-25T19:42:26.701Z,3.73
2018-04-25T19:44:53.709Z,3.70
2018-04-25T19:47:20.592Z,4.63
2018-04-25T19:49:47.540Z,4.23
2018-04-25T19:52:14.469Z,4.43
2018-04-25T19:54:40.660Z,4.67
2018-04-25T20:00:07.480Z,3.90
2018-04-25T20:02:34.590Z,4.17
2018-04-25T20:05:00.924Z,4.70
2018-04-25T20:07:27.805Z,4.80
2018-04-25T20:09:54.014Z,5.47
2018-04-25T20:12:20.191Z,5.37
2018-04-25T20:14:47.157Z,4.50
2018-04-25T20:17:13.349Z,5.13
2018-04-25T20:19:39.540Z,4.80
2018-04-25T20:22:05.733Z,5.00
2018-04-25T20:24:32.649Z,4.20
2018-04-25T20:26:58.914Z,4.70
2018-04-25T20:29:25.116Z,5.17
2018-04-25T20:31:51.289Z,4.70
2018-04-25T20:34:18.223Z,5.70
2018-04-25T20:36:44.402Z,2.30
2018-04-25T20:39:10.620Z,1.33
2018-04-25T20:41:36.818Z,1.70
2018-04-25T20:44:03.016Z,2.20
2018-04-25T20:46:29.223Z,2.20
2018-04-25T20:48:55.407Z,2.67
2018-04-25T20:51:21.610Z,3.27
2018-04-25T20:53:47.788Z,3.77
2018-04-25T20:56:13.995Z,3.77
2018-04-25T20:58:40.186Z,3.63
2018-04-25T21:01:06.378Z,4.47
2018-04-25T21:03:32.610Z,4.50
2018-04-25T21:05:58.802Z,4.57
2018-04-25T21:08:24.981Z,5.00
2018-04-25T21:10:51.170Z,5.03
2018-04-25T21:13:17.357Z,4.97
2018-04-25T21:15:44.321Z,5.40
2018-04-25T21:18:11.254Z,6.30
2018-04-25T21:20:37.424Z,6.77
2018-04-25T21:23:03.621Z,7.20
2018-04-25T21:25:29.809Z,6.17
2018-04-25T21:27:55.981Z,5.90
2018-04-25T21:30:22.206Z,6.80
2018-04-25T21:32:48.394Z,7.90
2018-04-25T21:35:14.564Z,6.77
2018-04-25T21:37:40.740Z,7.73
2018-04-25T21:40:06.923Z,7.57
2018-04-25T21:42:33.143Z,8.03
2018-04-25T21:44:59.346Z,7.87
2018-04-25T21:47:25.517Z,9.00
2018-04-25T21:49:51.711Z,8.50
2018-04-25T21:52:17.909Z,8.90
2018-04-25T21:54:44.154Z,8.20
2018-04-25T21:57:11.072Z,8.57
2018-04-25T21:59:37.315Z,8.03
2018-04-25T22:02:03.509Z,7.67
2018-04-25T22:04:29.716Z,8.03
2018-04-25T22:06:55.949Z,8.27
2018-04-25T22:09:22.162Z,8.00
2018-04-25T22:11:48.349Z,7.77
2018-04-25T22:14:14.540Z,7.47
2018-04-25T22:16:41.445Z,7.87
2018-04-25T22:19:07.649Z,6.27
2018-04-25T22:21:33.830Z,8.63
2018-04-25T22:24:00.015Z,7.60
2018-04-25T22:26:26.209Z,7.73
2018-04-25T22:28:52.394Z,7.87
2018-04-25T22:31:18.622Z,7.50
2018-04-25T22:33:44.833Z,9.00
2018-04-25T22:36:11.013Z,8.67
2018-04-25T22:38:37.188Z,8.70
2018-04-25T22:41:04.097Z,8.23
2018-04-25T22:43:30.355Z,6.83
2018-04-25T22:45:56.524Z,7.03
2018-04-25T22:48:22.703Z,6.47
2018-04-25T22:50:48.894Z,7.37
2018-04-25T22:53:15.072Z,7.57
2018-04-25T22:55:41.282Z,6.80
2018-04-25T22:58:07.453Z,7.67
2018-04-25T23:00:33.668Z,7.37
2018-04-25T23:02:59.887Z,7.23
2018-04-25T23:05:26.075Z,7.17
2018-04-25T23:07:53.046Z,6.30
2018-04-25T23:10:19.314Z,6.20
2018-04-25T23:12:45.506Z,6.83
2018-04-25T23:15:11.743Z,6.43
2018-04-25T23:17:37.934Z,5.70
2018-04-25T23:20:04.153Z,5.80
2018-04-25T23:22:30.350Z,5.23
2018-04-25T23:24:56.621Z,5.80
2018-04-25T23:27:23.480Z,5.83
2018-04-25T23:29:49.675Z,5.37
2018-04-25T23:32:15.890Z,5.33
2018-04-25T23:34:42.071Z,5.23
2018-04-25T23:37:08.286Z,5.70
2018-04-25T23:39:34.483Z,5.20
2018-04-25T23:42:00.673Z,5.57
2018-04-25T23:44:26.910Z,5.17
2018-04-25T23:46:53.153Z,6.20
2018-04-25T23:49:20.090Z,5.20
2018-04-25T23:51:46.287Z,5.23
2018-04-25T23:54:12.458Z,5.00
2018-04-25T23:56:38.658Z,4.30
2018-04-25T23:59:04.842Z,5.57
